KSIY/SIY METAR and TAF weather

Enter ICAO airport designator
Station Type Date Time Source
KSIY METAR 2019/04/25 09:53 UTC NOAA

KSIY 250953Z AUTO 07005KT 10SM CLR 10/07 A3004 RMK AO2 SLP169 T01000067


Station Type Date Time Source
KSIY Decoded METAR 2019/04/25 09:53 UTC NOAA

MONTAGUE SISKIYOU COUNTY, CA, United States (KSIY) 41-46N 122-28W
Apr 25, 2019 - 05:53 AM EDT / 2019.04.25 0953 UTC
Wind: from the ENE (070 degrees) at 6 MPH (5 KT):0
Visibility: 10 mile(s):0
Sky conditions: clear
Temperature: 50.0 F (10.0 C)
Dew Point: 44.1 F (6.7 C)
Relative Humidity: 79%
Pressure (altimeter): 30.04 in. Hg (1017 hPa)
ob: KSIY 250953Z AUTO 07005KT 10SM CLR 10/07 A3004 RMK AO2 SLP169 T01000067
cycle: 10

Station Type Date Time Source
KSIY TAF UTC NOAA

Error!

Example: see airport list